Time;durP1;ratioP1;P1;durP2;ratioP2;P2;SDS_P1;SDS_P2;PMS_P1;PMS_P2;Temp;Humidity;BMP_temperature;BMP_pressure;BME280_temperature;BME280_humidity;BME280_pressure;Samples;Min_cycle;Max_cycle;Signal;HPM_P1;HPM_P2
2024/03/17 00:02:32;;;;;;;7.43;4.60;;;2.90;99.90;;;;;;20849901;28;20091;-41
2024/03/17 00:12:35;;;;;;;11.50;6.70;;;2.90;99.90;;;;;;20865787;28;20033;-40
2024/03/17 00:22:39;;;;;;;10.75;6.28;;;2.90;99.90;;;;;;20878690;28;20036;-41
2024/03/17 00:32:44;;;;;;;11.30;5.78;;;2.90;99.90;;;;;;20892468;28;20103;-40
2024/03/17 00:42:46;;;;;;;8.32;4.65;;;3.20;99.90;;;;;;20903317;28;20476;-40
2024/03/17 00:52:48;;;;;;;5.45;2.70;;;3.40;99.90;;;;;;20918286;28;20491;-41
2024/03/17 01:02:50;;;;;;;3.58;2.20;;;3.60;99.90;;;;;;20899331;28;20472;-42
2024/03/17 01:12:52;;;;;;;3.92;1.40;;;3.70;99.90;;;;;;20916993;28;20040;-42
2024/03/17 01:22:53;;;;;;;1.73;0.63;;;3.90;99.90;;;;;;20916442;28;20033;-40
2024/03/17 01:32:59;;;;;;;3.75;0.45;;;3.80;99.90;;;;;;20898509;28;20045;-41
2024/03/17 01:43:01;;;;;;;3.92;2.47;;;3.60;99.90;;;;;;20894961;28;20373;-40
2024/03/17 01:53:05;;;;;;;3.20;1.58;;;3.30;99.90;;;;;;20853444;28;20041;-40
2024/03/17 02:03:08;;;;;;;1.98;1.17;;;3.10;99.90;;;;;;20830732;28;20037;-40
2024/03/17 02:13:10;;;;;;;3.47;2.05;;;3.10;99.90;;;;;;20832080;28;20090;-40
2024/03/17 02:23:12;;;;;;;3.00;2.05;;;3.50;99.90;;;;;;20861428;28;20059;-40
2024/03/17 02:33:14;;;;;;;0.93;0.40;;;3.70;99.90;;;;;;20896247;28;20052;-41
2024/03/17 02:43:16;;;;;;;0.73;0.32;;;3.90;99.90;;;;;;20834184;28;20045;-41
2024/03/17 02:53:19;;;;;;;1.05;0.45;;;4.20;99.90;;;;;;20761604;28;20799;-40
2024/03/17 03:03:21;;;;;;;1.75;1.00;;;4.30;99.90;;;;;;20726630;28;20161;-42
2024/03/17 03:13:23;;;;;;;2.75;1.73;;;4.50;99.90;;;;;;20734152;28;20038;-43
2024/03/17 03:23:26;;;;;;;3.28;2.15;;;4.70;99.90;;;;;;20776788;28;20103;-40
2024/03/17 03:33:28;;;;;;;2.72;1.70;;;4.70;99.90;;;;;;20854835;28;20495;-42
2024/03/17 03:43:31;;;;;;;3.58;2.20;;;4.90;99.90;;;;;;20861589;28;20087;-41
2024/03/17 03:53:34;;;;;;;5.50;3.08;;;5.00;99.90;;;;;;20856681;28;20079;-40
2024/03/17 04:03:36;;;;;;;7.53;3.83;;;4.90;99.90;;;;;;20879132;28;20500;-41
2024/03/17 04:13:38;;;;;;;8.20;4.38;;;5.10;99.90;;;;;;20899269;28;20037;-41
2024/03/17 04:23:39;;;;;;;5.53;3.65;;;5.00;99.90;;;;;;20913711;28;20044;-42
2024/03/17 04:33:41;;;;;;;3.70;2.42;;;4.90;99.90;;;;;;20920010;28;20049;-40
2024/03/17 04:43:43;;;;;;;4.95;2.25;;;5.10;99.90;;;;;;20863550;28;20037;-41
2024/03/17 04:53:45;;;;;;;2.30;1.42;;;4.90;99.90;;;;;;20905383;28;20028;-40
2024/03/17 05:03:46;;;;;;;1.60;1.00;;;5.10;99.90;;;;;;20918059;28;20033;-40
2024/03/17 05:13:48;;;;;;;3.95;1.48;;;5.20;99.90;;;;;;20883216;28;20734;-41
2024/03/17 05:23:50;;;;;;;1.63;1.10;;;5.00;99.90;;;;;;20870342;28;20025;-41
2024/03/17 05:33:52;;;;;;;1.23;0.60;;;4.70;99.90;;;;;;20914348;28;20451;-41
2024/03/17 05:43:57;;;;;;;1.30;1.00;;;4.80;99.90;;;;;;20914660;28;20072;-40
2024/03/17 05:54:00;;;;;;;2.13;0.90;;;5.00;99.90;;;;;;20885850;28;20111;-41
2024/03/17 06:04:05;;;;;;;1.77;0.80;;;5.10;99.90;;;;;;20854890;28;20052;-41
2024/03/17 06:14:09;;;;;;;1.00;0.52;;;5.00;99.90;;;;;;20866677;28;20091;-40
2024/03/17 06:24:11;;;;;;;1.08;0.55;;;5.10;99.90;;;;;;20904623;28;20476;-41
2024/03/17 06:34:15;;;;;;;1.17;0.60;;;5.40;99.90;;;;;;20858422;28;20048;-41
2024/03/17 06:44:17;;;;;;;1.25;0.30;;;5.30;99.90;;;;;;20811445;28;20075;-40
2024/03/17 06:54:19;;;;;;;0.68;0.30;;;5.30;99.90;;;;;;20897294;28;20043;-40
2024/03/17 07:04:21;;;;;;;0.65;0.28;;;5.50;99.90;;;;;;20892828;28;20037;-40
2024/03/17 07:14:26;;;;;;;1.52;0.82;;;5.50;99.90;;;;;;20866707;28;20033;-41
2024/03/17 07:24:27;;;;;;;0.73;0.43;;;6.30;99.90;;;;;;20857797;28;20033;-41
2024/03/17 07:34:35;;;;;;;0.88;0.50;;;7.30;99.90;;;;;;20819218;28;20050;-42
2024/03/17 07:44:37;;;;;;;0.47;0.30;;;8.20;99.90;;;;;;20820499;28;20041;-43
2024/03/17 07:54:39;;;;;;;2.35;1.40;;;9.20;99.40;;;;;;20798621;28;20080;-47
2024/03/17 08:04:42;;;;;;;2.20;1.63;;;10.20;99.90;;;;;;20817182;28;20033;-43
2024/03/17 08:14:44;;;;;;;2.40;1.55;;;11.40;99.90;;;;;;20813793;28;20042;-42
2024/03/17 08:24:46;;;;;;;2.22;1.23;;;12.60;99.80;;;;;;20784262;28;20362;-43
2024/03/17 08:34:48;;;;;;;2.15;1.60;;;13.40;98.30;;;;;;20803394;28;20080;-47
2024/03/17 08:44:50;;;;;;;1.90;1.40;;;14.00;97.00;;;;;;20820127;28;20038;-45
2024/03/17 08:54:51;;;;;;;2.03;1.42;;;14.10;97.20;;;;;;20819975;28;20022;-43
2024/03/17 09:04:53;;;;;;;3.92;1.90;;;13.60;96.30;;;;;;20803484;28;20045;-44
2024/03/17 09:14:55;;;;;;;3.42;1.67;;;13.30;96.40;;;;;;20834956;28;20476;-45
2024/03/17 09:24:57;;;;;;;1.88;0.85;;;13.20;95.80;;;;;;20834181;28;20132;-41
2024/03/17 09:34:59;;;;;;;3.65;1.60;;;13.50;96.10;;;;;;20812969;28;20049;-42
2024/03/17 09:45:01;;;;;;;5.53;3.70;;;14.10;94.60;;;;;;20811535;28;20029;-43
2024/03/17 09:55:09;;;;;;;5.40;4.45;;;14.40;95.50;;;;;;20827739;28;20387;-42
2024/03/17 10:05:22;;;;;;;6.97;5.18;;;14.80;96.10;;;;;;20812462;28;20037;-42
2024/03/17 10:15:27;;;;;;;12.40;8.77;;;15.30;96.80;;;;;;20779493;28;20087;-43
2024/03/17 10:25:30;;;;;;;16.85;12.80;;;15.50;98.20;;;;;;20810761;28;20038;-44
2024/03/17 10:35:34;;;;;;;17.02;11.63;;;15.80;99.60;;;;;;20822754;28;20041;-43
2024/03/17 10:45:41;;;;;;;17.15;12.23;;;15.90;98.30;;;;;;20821010;28;20472;-46
2024/03/17 10:55:50;;;;;;;16.55;12.05;;;16.00;97.90;;;;;;20822088;28;20091;-47
2024/03/17 11:05:53;;;;;;;14.90;12.10;;;16.10;98.40;;;;;;20820920;28;20029;-48
2024/03/17 11:15:58;;;;;;;11.90;10.18;;;16.00;98.30;;;;;;20822664;28;20083;-48
2024/03/17 11:26:00;;;;;;;14.30;10.98;;;15.70;97.30;;;;;;20822857;28;20037;-45
2024/03/17 11:36:24;;;;;;;16.75;11.50;;;15.50;99.60;;;;;;20822626;28;20045;-45
2024/03/17 11:46:27;;;;;;;14.15;10.23;;;15.50;99.60;;;;;;20822159;28;20103;-43
2024/03/17 11:56:30;;;;;;;15.38;12.23;;;15.80;96.20;;;;;;20821329;28;20032;-44
2024/03/17 12:06:33;;;;;;;22.05;16.88;;;15.70;99.40;;;;;;20819876;28;20041;-44
2024/03/17 12:16:36;;;;;;;25.45;18.67;;;15.60;99.90;;;;;;20818696;28;20436;-44
2024/03/17 12:26:39;;;;;;;26.40;19.75;;;14.90;99.90;;;;;;20644914;28;20109;-45
2024/03/17 12:36:41;;;;;;;29.33;20.88;;;14.50;99.90;;;;;;20610815;28;20086;-46
2024/03/17 12:46:43;;;;;;;26.52;20.55;;;14.00;99.90;;;;;;20590445;28;20050;-41
2024/03/17 13:07:13;;;;;;;27.00;19.98;;;13.40;99.90;;;;;;20835029;28;20033;-44
2024/03/17 13:17:17;;;;;;;27.97;20.37;;;13.60;99.90;;;;;;20864833;28;20025;-44
2024/03/17 13:27:19;;;;;;;26.05;19.02;;;14.00;99.90;;;;;;20780469;28;20084;-45
2024/03/17 13:37:21;;;;;;;22.80;17.77;;;14.00;99.90;;;;;;20809013;28;20493;-44
2024/03/17 13:47:33;;;;;;;24.80;17.95;;;13.60;99.90;;;;;;20829240;28;20025;-45
2024/03/17 13:57:34;;;;;;;21.92;17.42;;;13.40;99.90;;;;;;20828590;28;20048;-43
2024/03/17 14:07:39;;;;;;;24.60;17.55;;;12.90;99.90;;;;;;20829545;28;20108;-45
2024/03/17 14:17:46;;;;;;;22.67;17.00;;;12.50;99.90;;;;;;20830381;28;20033;-41
2024/03/17 14:27:49;;;;;;;24.05;17.08;;;12.10;99.90;;;;;;20829172;28;20351;-43
2024/03/17 14:37:53;;;;;;;22.27;17.10;;;11.90;99.90;;;;;;20873537;28;20052;-42
2024/03/17 14:47:55;;;;;;;24.13;16.48;;;11.60;99.90;;;;;;20886373;28;20049;-44
2024/03/17 14:57:57;;;;;;;23.83;16.83;;;11.40;99.90;;;;;;20853789;28;20090;-43
2024/03/17 15:07:59;;;;;;;23.92;17.20;;;11.00;99.90;;;;;;20904747;28;20094;-42
2024/03/17 15:18:01;;;;;;;25.02;18.15;;;11.00;99.90;;;;;;20844387;28;20041;-43
2024/03/17 15:28:03;;;;;;;22.75;16.30;;;11.30;99.90;;;;;;20869954;28;20037;-43
2024/03/17 15:38:06;;;;;;;22.60;16.65;;;11.60;99.90;;;;;;20894059;28;20091;-45
2024/03/17 15:48:09;;;;;;;22.95;17.33;;;11.30;99.90;;;;;;20894408;28;20044;-45
2024/03/17 15:58:11;;;;;;;24.17;16.25;;;11.10;99.90;;;;;;20902188;28;20048;-41
2024/03/17 16:08:13;;;;;;;22.17;15.90;;;10.70;99.90;;;;;;20886308;28;20037;-42
2024/03/17 16:18:15;;;;;;;23.70;18.75;;;10.50;99.90;;;;;;20912235;28;20040;-43
2024/03/17 16:28:17;;;;;;;29.67;20.65;;;10.30;99.90;;;;;;20851335;28;20441;-43
2024/03/17 16:38:19;;;;;;;34.03;23.25;;;9.80;99.90;;;;;;20902526;28;20045;-42
2024/03/17 16:48:21;;;;;;;41.63;26.55;;;9.50;99.90;;;;;;20918635;28;20041;-41
2024/03/17 16:58:23;;;;;;;36.80;25.25;;;9.10;99.90;;;;;;20918845;28;20510;-42
2024/03/17 17:08:24;;;;;;;44.28;30.15;;;8.80;99.90;;;;;;20918079;28;20079;-44
2024/03/17 17:18:54;;;;;;;27.70;18.88;;;8.70;99.90;;;;;;20917307;28;20110;-41
2024/03/17 17:29:02;;;;;;;31.33;20.50;;;8.20;99.90;;;;;;20840503;28;20084;-41
2024/03/17 17:39:04;;;;;;;30.27;20.92;;;7.40;99.90;;;;;;20872778;28;20049;-41
2024/03/17 17:49:06;;;;;;;36.72;23.25;;;6.70;99.90;;;;;;20883608;28;20033;-47
2024/03/17 17:59:09;;;;;;;43.20;25.02;;;6.40;99.90;;;;;;20912765;28;20039;-41
2024/03/17 18:09:18;;;;;;;41.45;26.13;;;6.20;99.90;;;;;;20913652;28;20087;-42
2024/03/17 18:19:20;;;;;;;39.00;23.92;;;5.90;99.90;;;;;;20912395;28;20029;-41
2024/03/17 18:29:22;;;;;;;36.25;22.58;;;5.70;99.90;;;;;;20912195;28;20082;-41
2024/03/17 18:39:24;;;;;;;59.20;30.63;;;5.40;99.90;;;;;;20873700;28;20060;-40
2024/03/17 18:49:26;;;;;;;39.92;22.55;;;5.30;99.90;;;;;;20892059;28;20029;-41
2024/03/17 18:59:28;;;;;;;35.20;20.80;;;5.30;99.90;;;;;;20909508;28;20037;-40
2024/03/17 19:09:30;;;;;;;29.27;16.60;;;5.30;99.90;;;;;;20908576;28;20569;-41
2024/03/17 19:19:32;;;;;;;24.05;14.02;;;5.20;99.90;;;;;;20907620;28;20029;-41
2024/03/17 19:29:34;;;;;;;16.38;9.15;;;5.30;99.90;;;;;;20907165;28;20029;-40
2024/03/17 19:39:38;;;;;;;14.93;8.25;;;5.40;99.90;;;;;;20862402;28;20042;-40
2024/03/17 19:49:40;;;;;;;22.48;15.27;;;5.20;99.90;;;;;;20787187;28;20033;-40
2024/03/17 19:59:45;;;;;;;18.35;10.90;;;5.20;99.90;;;;;;20741658;28;20034;-41
2024/03/17 20:09:47;;;;;;;24.50;14.85;;;5.20;99.90;;;;;;20828929;28;20033;-40
2024/03/17 20:19:50;;;;;;;18.48;12.48;;;5.10;99.90;;;;;;20723061;28;20474;-40
2024/03/17 20:29:51;;;;;;;23.35;14.82;;;5.10;99.90;;;;;;20740109;28;20088;-41
2024/03/17 20:39:53;;;;;;;22.75;13.05;;;4.90;99.90;;;;;;20786189;28;20485;-40
2024/03/17 20:49:56;;;;;;;22.25;13.57;;;4.90;99.90;;;;;;20821125;28;20029;-40
2024/03/17 21:00:00;;;;;;;31.48;19.17;;;4.70;99.90;;;;;;20821723;28;20076;-41
2024/03/17 21:10:04;;;;;;;26.77;15.63;;;4.70;99.90;;;;;;20834608;28;20045;-41
2024/03/17 21:20:23;;;;;;;34.58;20.50;;;5.00;99.90;;;;;;20834471;28;20076;-42
2024/03/17 21:30:26;;;;;;;30.23;17.50;;;5.10;99.90;;;;;;20839298;28;20045;-43
2024/03/17 21:40:28;;;;;;;34.47;18.00;;;5.00;99.90;;;;;;20864495;28;20369;-41
2024/03/17 21:50:31;;;;;;;29.85;18.77;;;4.80;99.90;;;;;;20790402;28;20034;-42
2024/03/17 22:00:33;;;;;;;29.05;17.48;;;4.60;99.90;;;;;;20750120;28;20041;-40
2024/03/17 22:10:35;;;;;;;21.63;13.35;;;4.50;99.90;;;;;;20777269;28;20026;-42
2024/03/17 22:20:37;;;;;;;18.38;12.38;;;4.60;99.90;;;;;;20747334;28;20045;-44
2024/03/17 22:30:48;;;;;;;27.27;15.07;;;4.40;99.90;;;;;;20567529;28;20182;-41
2024/03/17 22:41:11;;;;;;;26.45;16.15;;;4.10;99.90;;;;;;20707620;28;20046;-41
2024/03/17 22:51:14;;;;;;;27.67;15.02;;;3.90;99.90;;;;;;20736338;28;20408;-42
2024/03/17 23:01:15;;;;;;;21.27;13.00;;;3.80;99.90;;;;;;20753907;28;20041;-41
2024/03/17 23:11:20;;;;;;;24.58;13.82;;;3.70;99.90;;;;;;20907272;28;20033;-43
2024/03/17 23:21:22;;;;;;;23.67;14.30;;;3.80;99.90;;;;;;20907915;28;20033;-40
2024/03/17 23:31:24;;;;;;;27.92;16.45;;;3.70;99.90;;;;;;20906894;28;20033;-42
2024/03/17 23:41:25;;;;;;;19.98;12.85;;;4.00;99.90;;;;;;20847678;28;20079;-41
2024/03/17 23:51:27;;;;;;;22.95;12.93;;;4.20;99.90;;;;;;20772834;28;20442;-42
